createdAt,value
2019-01-10T00:00:18.039Z,74.21
2019-01-10T00:01:18.004Z,75.05
2019-01-10T00:02:17.966Z,74.49
2019-01-10T00:03:17.931Z,74.68
2019-01-10T00:04:17.897Z,73.73
2019-01-10T00:05:17.861Z,74.68
2019-01-10T00:06:17.822Z,74.11
2019-01-10T00:07:17.786Z,76.10
2019-01-10T00:08:17.751Z,75.62
2019-01-10T00:09:17.716Z,74.40
2019-01-10T00:10:17.678Z,75.05
2019-01-10T00:11:17.644Z,73.45
2019-01-10T00:12:17.608Z,73.35
2019-01-10T00:13:17.570Z,74.49
2019-01-10T00:14:17.535Z,75.24
2019-01-10T00:15:17.499Z,73.45
2019-01-10T00:16:17.462Z,74.30
2019-01-10T00:17:17.427Z,73.45
2019-01-10T00:18:17.391Z,74.21
2019-01-10T00:19:17.355Z,73.35
2019-01-10T00:20:17.319Z,76.67
2019-01-10T00:21:17.283Z,74.11
2019-01-10T00:22:17.246Z,72.97
2019-01-10T00:23:17.211Z,73.26
2019-01-10T00:24:17.174Z,72.88
2019-01-10T00:25:17.139Z,72.97
2019-01-10T00:26:17.101Z,73.45
2019-01-10T00:27:17.066Z,74.30
2019-01-10T00:28:17.030Z,72.97
2019-01-10T00:29:16.993Z,73.16
2019-01-10T00:30:16.956Z,71.93
2019-01-10T00:31:16.921Z,74.21
2019-01-10T00:32:16.884Z,72.22
2019-01-10T00:33:16.849Z,74.21
2019-01-10T00:34:16.812Z,74.02
2019-01-10T00:35:16.777Z,73.45
2019-01-10T00:36:16.742Z,75.53
2019-01-10T00:37:16.705Z,74.11
2019-01-10T00:38:16.669Z,75.81
2019-01-10T00:39:16.632Z,75.15
2019-01-10T00:40:16.596Z,74.11
2019-01-10T00:41:16.560Z,74.58
2019-01-10T00:42:16.523Z,72.22
2019-01-10T00:43:16.487Z,73.45
2019-01-10T00:44:16.451Z,72.41
2019-01-10T00:45:16.425Z,75.15
2019-01-10T00:46:16.379Z,74.11
2019-01-10T00:47:16.343Z,74.49
2019-01-10T00:48:16.308Z,72.03
2019-01-10T00:49:16.271Z,71.27
2019-01-10T00:50:16.235Z,72.22
2019-01-10T00:51:16.199Z,72.41
2019-01-10T00:52:16.165Z,71.55
2019-01-10T00:53:16.130Z,72.22
2019-01-10T00:54:16.091Z,73.54
2019-01-10T00:55:16.061Z,73.64
2019-01-10T00:56:16.020Z,71.74
2019-01-10T00:57:15.984Z,72.50
2019-01-10T00:58:15.947Z,73.73
2019-01-10T00:59:15.911Z,72.12
2019-01-10T01:00:15.981Z,71.17
2019-01-10T01:01:15.839Z,73.22
2019-01-10T01:02:15.801Z,72.31
2019-01-10T01:03:15.766Z,72.37
2019-01-10T01:04:15.728Z,71.55
2019-01-10T01:05:15.693Z,70.20
2019-01-10T01:06:15.876Z,71.46
2019-01-10T01:07:15.620Z,71.04
2019-01-10T01:08:15.584Z,72.22
2019-01-10T01:09:15.552Z,70.32
2019-01-10T01:10:15.516Z,71.46
2019-01-10T01:11:15.476Z,70.01
2019-01-10T01:12:15.440Z,70.98
2019-01-10T01:13:15.404Z,70.57
2019-01-10T01:14:15.368Z,70.70
2019-01-10T01:15:15.331Z,70.67
2019-01-10T01:16:15.296Z,67.74
2019-01-10T01:17:15.934Z,69.15
2019-01-10T01:18:15.262Z,69.15
2019-01-10T01:19:15.190Z,69.44
2019-01-10T01:20:15.150Z,69.15
2019-01-10T01:21:15.116Z,68.43
2019-01-10T01:22:15.079Z,67.64
2019-01-10T01:23:15.042Z,66.79
2019-01-10T01:24:15.006Z,67.36
2019-01-10T01:25:14.973Z,66.50
2019-01-10T01:26:14.933Z,66.69
2019-01-10T01:27:14.899Z,66.88
2019-01-10T01:28:14.860Z,66.50
2019-01-10T01:29:14.827Z,65.37
2019-01-10T01:30:14.789Z,67.07
2019-01-10T01:31:14.753Z,66.31
2019-01-10T01:32:14.718Z,66.31
2019-01-10T01:33:14.681Z,66.50
2019-01-10T01:34:14.644Z,65.37
2019-01-10T01:35:14.608Z,65.66
2019-01-10T01:36:14.572Z,65.66
2019-01-10T01:37:14.537Z,64.42
2019-01-10T01:38:14.499Z,65.09
2019-01-10T01:39:14.463Z,64.04
2019-01-10T01:40:14.427Z,64.61
2019-01-10T01:41:14.393Z,64.23
2019-01-10T01:42:14.355Z,64.33
2019-01-10T01:43:14.319Z,63.10
2019-01-10T01:44:14.283Z,63.48
2019-01-10T01:45:14.249Z,62.72
2019-01-10T01:46:14.211Z,63.85
2019-01-10T01:47:14.174Z,64.33
2019-01-10T01:48:14.138Z,63.95
2019-01-10T01:49:14.101Z,63.39
2019-01-10T01:50:14.066Z,63.57
2019-01-10T01:51:14.029Z,64.80
2019-01-10T01:52:13.993Z,64.33
2019-01-10T01:53:13.957Z,64.61
2019-01-10T01:54:13.921Z,63.57
2019-01-10T01:55:13.884Z,63.20
2019-01-10T01:56:13.851Z,63.20
2019-01-10T01:57:13.813Z,62.44
2019-01-10T01:58:13.775Z,62.82
2019-01-10T01:59:13.740Z,62.63
2019-01-10T02:00:13.703Z,61.58
2019-01-10T02:01:13.668Z,61.30
2019-01-10T02:02:13.628Z,61.87
2019-01-10T02:03:13.594Z,61.02
2019-01-10T02:04:13.557Z,60.74
2019-01-10T02:05:13.522Z,60.17
2019-01-10T02:06:13.484Z,60.07
2019-01-10T02:07:13.447Z,59.41
2019-01-10T02:08:13.411Z,59.03
2019-01-10T02:09:13.375Z,59.41
2019-01-10T02:10:13.338Z,59.03
2019-01-10T02:11:13.302Z,58.28
2019-01-10T02:12:13.266Z,57.61
2019-01-10T02:13:16.865Z,57.33
2019-01-10T02:14:13.191Z,57.14
2019-01-10T02:15:14.321Z,56.85
2019-01-10T02:16:13.119Z,56.10
2019-01-10T02:17:13.086Z,55.25
2019-01-10T02:18:13.046Z,55.63
2019-01-10T02:19:13.073Z,56.20
2019-01-10T02:20:12.972Z,55.63
2019-01-10T02:21:12.937Z,55.15
2019-01-10T02:22:12.903Z,54.39
2019-01-10T02:23:12.865Z,54.49
2019-01-10T02:24:12.827Z,53.74
2019-01-10T02:25:12.792Z,53.07
2019-01-10T02:26:12.754Z,52.50
2019-01-10T02:27:12.720Z,52.03
2019-01-10T02:28:12.681Z,51.46
2019-01-10T02:29:12.646Z,51.37
2019-01-10T02:30:12.612Z,51.56
2019-01-10T02:31:12.581Z,51.37
2019-01-10T02:32:12.536Z,50.23
2019-01-10T02:33:12.499Z,50.42
2019-01-10T02:34:12.461Z,51.09
2019-01-10T02:35:12.425Z,50.71
2019-01-10T02:36:12.388Z,51.06
2019-01-10T02:37:12.352Z,51.46
2019-01-10T02:38:12.314Z,51.56
2019-01-10T02:39:12.279Z,51.65
2019-01-10T02:40:12.246Z,51.46
2019-01-10T02:41:12.456Z,51.25
2019-01-10T02:42:12.169Z,50.99
2019-01-10T02:43:12.131Z,50.40
2019-01-10T02:44:12.098Z,50.21
2019-01-10T02:45:12.059Z,49.64
2019-01-10T02:46:12.020Z,48.88
2019-01-10T02:47:11.983Z,47.75
2019-01-10T02:48:11.946Z,47.37
2019-01-10T02:49:11.911Z,47.18
2019-01-10T02:50:11.874Z,47.47
2019-01-10T02:51:11.837Z,47.18
2019-01-10T02:52:11.800Z,46.80
2019-01-10T02:53:11.763Z,47.18
2019-01-10T02:54:11.726Z,46.71
2019-01-10T02:55:11.688Z,45.57
2019-01-10T02:56:11.651Z,44.72
2019-01-10T02:57:11.616Z,44.53
2019-01-10T02:58:11.578Z,44.53
2019-01-10T02:59:11.540Z,44.72
2019-01-10T03:00:11.504Z,44.72
2019-01-10T03:01:11.467Z,44.82
2019-01-10T03:02:11.429Z,44.44
2019-01-10T03:03:11.392Z,42.74
2019-01-10T03:04:11.355Z,42.83
2019-01-10T03:05:11.321Z,42.45
2019-01-10T03:06:11.280Z,41.89
2019-01-10T03:07:11.245Z,41.60
2019-01-10T03:08:11.207Z,42.27
2019-01-10T03:09:11.172Z,41.60
2019-01-10T03:10:11.132Z,41.70
2019-01-10T03:11:11.099Z,41.60
2019-01-10T03:12:11.059Z,41.41
2019-01-10T03:13:11.022Z,41.51
2019-01-10T03:14:10.985Z,40.84
2019-01-10T03:15:10.949Z,40.75
2019-01-10T03:16:10.912Z,40.84
2019-01-10T03:17:10.874Z,40.94
2019-01-10T03:18:10.839Z,40.75
2019-01-10T03:19:10.800Z,40.75
2019-01-10T03:20:10.764Z,40.94
2019-01-10T03:21:10.727Z,41.03
2019-01-10T03:22:10.688Z,40.84
2019-01-10T03:23:10.652Z,40.84
2019-01-10T03:24:10.614Z,40.75
2019-01-10T03:25:10.577Z,40.75
2019-01-10T03:26:10.539Z,41.13
2019-01-10T03:27:10.507Z,41.03
2019-01-10T03:28:10.466Z,40.84
2019-01-10T03:29:11.645Z,40.84
2019-01-10T03:30:10.391Z,41.03
2019-01-10T03:31:10.355Z,40.94
2019-01-10T03:32:10.317Z,40.66
2019-01-10T03:33:10.280Z,40.94
2019-01-10T03:34:10.243Z,40.47
2019-01-10T03:35:10.204Z,40.00
2019-01-10T03:36:10.168Z,40.09
2019-01-10T03:37:10.131Z,39.90
2019-01-10T03:38:10.093Z,40.47
2019-01-10T03:39:10.057Z,40.47
2019-01-10T03:40:10.019Z,39.81
2019-01-10T03:41:09.981Z,39.52
2019-01-10T03:42:09.944Z,39.62
2019-01-10T03:43:09.908Z,39.90
2019-01-10T03:44:09.871Z,39.62
2019-01-10T03:45:09.832Z,39.71
2019-01-10T03:46:09.794Z,39.52
2019-01-10T03:47:09.758Z,39.14
2019-01-10T03:48:09.720Z,38.67
2019-01-10T03:49:09.684Z,38.48
2019-01-10T03:50:09.646Z,38.67
2019-01-10T03:51:09.609Z,38.76
2019-01-10T03:52:09.575Z,38.57
2019-01-10T03:53:09.537Z,38.48
2019-01-10T03:54:09.500Z,38.20
2019-01-10T03:55:09.461Z,38.20
2019-01-10T03:56:09.426Z,38.10
2019-01-10T03:57:09.390Z,38.01
2019-01-10T03:58:09.349Z,38.10
2019-01-10T03:59:09.314Z,38.10
2019-01-10T04:00:09.276Z,38.29
2019-01-10T04:01:09.275Z,38.76
2019-01-10T04:02:09.203Z,38.67
2019-01-10T04:03:09.167Z,38.57
2019-01-10T04:04:09.130Z,38.76
2019-01-10T04:05:09.197Z,38.67
2019-01-10T04:06:09.055Z,38.57
2019-01-10T04:07:09.020Z,38.67
2019-01-10T04:08:08.985Z,38.86
2019-01-10T04:09:08.947Z,38.86
2019-01-10T04:10:08.908Z,38.86
2019-01-10T04:11:08.872Z,38.86
2019-01-10T04:12:08.834Z,38.86
2019-01-10T04:13:08.799Z,38.95
2019-01-10T04:14:08.761Z,39.43
2019-01-10T04:15:08.729Z,40.00
2019-01-10T04:16:08.688Z,39.62
2019-01-10T04:17:08.657Z,39.81
2019-01-10T04:18:08.614Z,40.00
2019-01-10T04:19:08.580Z,40.00
2019-01-10T04:20:08.547Z,39.90
2019-01-10T04:21:16.985Z,39.81
2019-01-10T04:22:08.468Z,39.52
2019-01-10T04:23:08.432Z,40.00
2019-01-10T04:24:08.395Z,39.83
2019-01-10T04:25:08.363Z,40.00
2019-01-10T04:26:08.325Z,39.81
2019-01-10T04:27:08.288Z,39.90
2019-01-10T04:28:08.255Z,40.00
2019-01-10T04:29:08.215Z,40.09
2019-01-10T04:30:08.179Z,39.90
2019-01-10T04:31:08.142Z,39.81
2019-01-10T04:32:08.116Z,40.09
2019-01-10T04:33:08.068Z,39.33
2019-01-10T04:34:08.030Z,40.09
2019-01-10T04:35:07.994Z,39.81
2019-01-10T04:36:07.959Z,39.62
2019-01-10T04:37:07.925Z,39.24
2019-01-10T04:38:07.886Z,39.62
2019-01-10T04:39:07.851Z,39.33
2019-01-10T04:40:07.818Z,38.67
2019-01-10T04:41:07.778Z,38.29
2019-01-10T04:42:07.741Z,38.29
2019-01-10T04:43:07.704Z,38.29
2019-01-10T04:44:07.667Z,38.01
2019-01-10T04:45:07.633Z,38.01
2019-01-10T04:46:07.594Z,38.10
2019-01-10T04:47:07.559Z,38.20
2019-01-10T04:48:07.530Z,38.39
2019-01-10T04:49:07.487Z,38.29
2019-01-10T04:50:07.448Z,37.73
2019-01-10T04:51:07.413Z,37.73
2019-01-10T04:52:09.277Z,37.92
2019-01-10T04:53:07.341Z,37.54
2019-01-10T04:54:07.307Z,37.46
2019-01-10T04:55:07.269Z,37.44
2019-01-10T04:56:07.236Z,37.35
2019-01-10T04:57:07.195Z,37.54
2019-01-10T04:58:07.162Z,37.54
2019-01-10T04:59:07.122Z,37.44
2019-01-10T05:00:07.087Z,37.16
2019-01-10T05:01:07.050Z,37.37
2019-01-10T05:02:07.015Z,37.08
2019-01-10T05:03:06.984Z,37.16
2019-01-10T05:04:06.942Z,37.37
2019-01-10T05:05:06.909Z,37.35
2019-01-10T05:06:06.872Z,37.35
2019-01-10T05:07:06.832Z,37.08
2019-01-10T05:08:06.797Z,37.18
2019-01-10T05:09:06.761Z,37.27
2019-01-10T05:10:06.725Z,37.46
2019-01-10T05:11:06.688Z,37.46
2019-01-10T05:12:06.652Z,37.65
2019-01-10T05:13:06.619Z,37.35
2019-01-10T05:14:11.729Z,37.46
2019-01-10T05:15:06.542Z,36.99
2019-01-10T05:16:06.506Z,37.46
2019-01-10T05:17:06.470Z,37.37
2019-01-10T05:18:08.078Z,37.18
2019-01-10T05:19:06.397Z,37.27
2019-01-10T05:20:06.363Z,37.37
2019-01-10T05:21:06.326Z,37.44
2019-01-10T05:22:06.290Z,37.44
2019-01-10T05:23:06.251Z,37.55
2019-01-10T05:24:06.216Z,37.44
2019-01-10T05:25:06.188Z,37.54
2019-01-10T05:26:06.144Z,37.46
2019-01-10T05:27:06.107Z,37.55
2019-01-10T05:28:06.074Z,37.16
2019-01-10T05:29:06.034Z,37.44
2019-01-10T05:30:05.997Z,37.73
2019-01-10T05:31:05.960Z,37.44
2019-01-10T05:32:05.926Z,37.35
2019-01-10T05:33:05.889Z,37.06
2019-01-10T05:34:05.852Z,37.35
2019-01-10T05:35:05.816Z,37.35
2019-01-10T05:36:05.778Z,37.25
2019-01-10T05:37:05.972Z,37.73
2019-01-10T05:38:05.709Z,37.35
2019-01-10T05:39:05.670Z,37.25
2019-01-10T05:40:05.633Z,37.06
2019-01-10T05:41:05.597Z,36.97
2019-01-10T05:42:05.560Z,37.06
2019-01-10T05:43:05.527Z,37.06
2019-01-10T05:44:05.489Z,37.06
2019-01-10T05:45:05.451Z,36.97
2019-01-10T05:46:05.414Z,36.97
2019-01-10T05:47:05.379Z,37.06
2019-01-10T05:48:05.343Z,37.06
2019-01-10T05:49:05.306Z,37.35
2019-01-10T05:50:05.270Z,37.35
2019-01-10T05:51:05.237Z,37.35
2019-01-10T05:52:05.196Z,37.35
2019-01-10T05:53:05.162Z,37.44
2019-01-10T05:54:05.123Z,37.44
2019-01-10T05:55:05.087Z,37.73
2019-01-10T05:56:05.051Z,37.73
2019-01-10T05:57:05.013Z,37.92
2019-01-10T05:58:04.984Z,38.29
2019-01-10T05:59:04.940Z,38.10
2019-01-10T06:00:04.904Z,38.20
2019-01-10T06:01:04.868Z,38.48
2019-01-10T06:02:04.833Z,38.76
2019-01-10T06:03:04.796Z,38.95
2019-01-10T06:04:04.758Z,38.86
2019-01-10T06:05:04.721Z,38.76
2019-01-10T06:06:04.684Z,38.86
2019-01-10T06:07:04.650Z,39.05
2019-01-10T06:08:04.613Z,39.05
2019-01-10T06:09:04.576Z,39.52
2019-01-10T06:10:04.538Z,39.43
2019-01-10T06:11:04.501Z,38.95
2019-01-10T06:12:04.466Z,39.05
2019-01-10T06:13:04.431Z,40.00
2019-01-10T06:14:04.394Z,40.00
2019-01-10T06:15:04.357Z,40.19
2019-01-10T06:16:04.320Z,39.90
2019-01-10T06:17:04.283Z,39.81
2019-01-10T06:18:04.246Z,40.00
2019-01-10T06:19:04.210Z,41.70
2019-01-10T06:20:04.174Z,41.89
2019-01-10T06:21:04.138Z,41.70
2019-01-10T06:22:04.101Z,41.82
2019-01-10T06:23:04.064Z,41.63
2019-01-10T06:24:04.029Z,41.82
2019-01-10T06:25:03.994Z,41.53
2019-01-10T06:26:03.958Z,41.72
2019-01-10T06:27:03.920Z,41.51
2019-01-10T06:28:03.883Z,41.41
2019-01-10T06:29:03.848Z,41.32
2019-01-10T06:30:03.810Z,40.94
2019-01-10T06:31:03.774Z,40.94
2019-01-10T06:32:03.736Z,40.84
2019-01-10T06:33:03.702Z,40.94
2019-01-10T06:34:03.663Z,40.28
2019-01-10T06:35:03.628Z,40.37
2019-01-10T06:36:03.591Z,40.66
2019-01-10T06:37:03.556Z,40.75
2019-01-10T06:38:03.517Z,40.37
2019-01-10T06:39:03.483Z,40.28
2019-01-10T06:40:03.456Z,40.00
2019-01-10T06:41:03.408Z,40.09
2019-01-10T06:42:03.373Z,39.71
2019-01-10T06:43:03.343Z,40.00
2019-01-10T06:44:03.301Z,40.00
2019-01-10T06:45:03.263Z,38.95
2019-01-10T06:46:03.226Z,39.14
2019-01-10T06:47:03.189Z,39.24
2019-01-10T06:48:03.155Z,39.90
2019-01-10T06:49:03.118Z,40.09
2019-01-10T06:50:03.081Z,40.09
2019-01-10T06:51:03.044Z,40.37
2019-01-10T06:52:03.009Z,40.94
2019-01-10T06:53:02.974Z,41.51
2019-01-10T06:54:02.934Z,41.60
2019-01-10T06:55:02.898Z,42.83
2019-01-10T06:56:02.864Z,42.93
2019-01-10T06:57:02.826Z,42.74
2019-01-10T06:58:02.790Z,42.55
2019-01-10T06:59:02.754Z,42.93
2019-01-10T07:00:02.717Z,42.38
2019-01-10T07:01:02.686Z,42.93
2019-01-10T07:02:02.644Z,42.55
2019-01-10T07:03:02.608Z,43.12
2019-01-10T07:04:02.573Z,43.30
2019-01-10T07:05:02.537Z,43.87
2019-01-10T07:06:02.497Z,44.25
2019-01-10T07:07:02.462Z,44.34
2019-01-10T07:08:02.425Z,44.25
2019-01-10T07:09:02.389Z,43.49
2019-01-10T07:10:02.352Z,43.02
2019-01-10T07:11:02.316Z,43.21
2019-01-10T07:12:02.280Z,43.02
2019-01-10T07:13:02.247Z,42.93
2019-01-10T07:14:02.207Z,42.93
2019-01-10T07:15:02.171Z,42.93
2019-01-10T07:16:02.136Z,42.64
2019-01-10T07:17:02.098Z,42.55
2019-01-10T07:18:02.064Z,43.12
2019-01-10T07:19:02.025Z,43.49
2019-01-10T07:20:01.989Z,43.49
2019-01-10T07:21:01.956Z,43.21
2019-01-10T07:22:01.917Z,43.30
2019-01-10T07:23:01.881Z,43.49
2019-01-10T07:24:01.844Z,42.93
2019-01-10T07:25:01.807Z,43.21
2019-01-10T07:26:01.770Z,43.21
2019-01-10T07:27:01.735Z,43.12
2019-01-10T07:28:01.698Z,43.30
2019-01-10T07:29:01.661Z,43.49
2019-01-10T07:30:01.629Z,43.21
2019-01-10T07:31:01.589Z,43.30
2019-01-10T07:32:01.553Z,44.72
2019-01-10T07:33:01.517Z,45.67
2019-01-10T07:34:01.480Z,45.10
2019-01-10T07:35:01.445Z,45.39
2019-01-10T07:36:01.409Z,45.39
2019-01-10T07:37:01.372Z,45.86
2019-01-10T07:38:01.333Z,46.52
2019-01-10T07:39:01.298Z,47.02
2019-01-10T07:40:01.264Z,46.36
2019-01-10T07:41:01.227Z,46.55
2019-01-10T07:42:01.188Z,46.45
2019-01-10T07:43:01.157Z,46.36
2019-01-10T07:44:01.116Z,47.77
2019-01-10T07:45:02.886Z,48.63
2019-01-10T07:46:01.044Z,49.48
2019-01-10T07:47:01.006Z,48.53
2019-01-10T07:48:00.973Z,48.25
2019-01-10T07:49:00.935Z,47.96
2019-01-10T07:50:00.900Z,48.34
2019-01-10T07:51:00.909Z,50.04
2019-01-10T07:52:00.827Z,50.14
2019-01-10T07:53:00.825Z,49.57
2019-01-10T07:54:00.754Z,50.42
2019-01-10T07:55:00.813Z,51.28
2019-01-10T07:56:00.680Z,50.23
2019-01-10T07:57:00.646Z,50.42
2019-01-10T07:58:00.624Z,49.95
2019-01-10T07:59:00.573Z,50.42
2019-01-10T08:00:00.586Z,51.09
2019-01-10T08:01:00.505Z,51.65
2019-01-10T08:02:00.464Z,52.69
2019-01-10T08:03:00.430Z,54.21
2019-01-10T08:04:00.392Z,54.77
2019-01-10T08:05:00.365Z,53.45
2019-01-10T08:06:00.320Z,53.83
2019-01-10T08:07:00.284Z,54.02
2019-01-10T08:08:00.250Z,54.68
2019-01-10T08:09:00.212Z,55.25
2019-01-10T08:10:00.176Z,56.76
2019-01-10T08:11:00.141Z,56.57
2019-01-10T08:12:00.872Z,59.41
2019-01-10T08:13:00.073Z,59.12
2019-01-10T08:14:00.059Z,59.22
2019-01-10T08:14:59.997Z,58.28
2019-01-10T08:15:59.961Z,57.52
2019-01-10T08:16:59.925Z,58.75
2019-01-10T08:17:59.888Z,61.30
2019-01-10T08:18:59.853Z,62.15
2019-01-10T08:19:59.816Z,59.50
2019-01-10T08:20:59.874Z,59.41
2019-01-10T08:21:59.747Z,61.49
2019-01-10T08:22:59.710Z,61.02
2019-01-10T08:23:59.675Z,60.17
2019-01-10T08:24:59.637Z,59.03
2019-01-10T08:25:59.601Z,59.98
2019-01-10T08:26:59.565Z,62.91
2019-01-10T08:27:59.531Z,62.63
2019-01-10T08:28:59.493Z,63.01
2019-01-10T08:29:59.460Z,62.44
2019-01-10T08:30:59.421Z,61.30
2019-01-10T08:31:59.387Z,63.76
2019-01-10T08:32:59.349Z,64.61
2019-01-10T08:33:59.313Z,63.39
2019-01-10T08:34:59.277Z,63.76
2019-01-10T08:35:59.242Z,63.76
2019-01-10T08:36:59.217Z,63.48
2019-01-10T08:37:59.169Z,62.91
2019-01-10T08:38:59.133Z,62.82
2019-01-10T08:39:59.098Z,63.48
2019-01-10T08:40:59.064Z,63.57
2019-01-10T08:41:59.025Z,63.67
2019-01-10T08:42:58.990Z,69.25
2019-01-10T08:43:58.955Z,68.21
2019-01-10T08:44:58.951Z,67.93
2019-01-10T08:45:58.883Z,67.17
2019-01-10T08:46:58.845Z,68.30
2019-01-10T08:47:58.810Z,67.26
2019-01-10T08:48:58.776Z,69.34
2019-01-10T08:49:58.737Z,68.77
2019-01-10T08:50:58.703Z,69.06
2019-01-10T08:51:58.666Z,71.52
2019-01-10T08:52:58.630Z,70.67
2019-01-10T08:53:58.597Z,69.91
2019-01-10T08:54:58.559Z,72.09
2019-01-10T08:55:58.522Z,73.03
2019-01-10T08:56:58.487Z,71.71
2019-01-10T08:57:58.451Z,71.46
2019-01-10T08:58:58.415Z,71.65
2019-01-10T08:59:58.378Z,75.62
2019-01-10T09:00:58.342Z,76.38
2019-01-10T09:01:58.306Z,77.14
2019-01-10T09:02:58.272Z,79.60
2019-01-10T09:03:58.234Z,79.32
2019-01-10T09:04:58.201Z,77.33
2019-01-10T09:05:58.164Z,78.18
2019-01-10T09:06:58.128Z,78.75
2019-01-10T09:07:58.092Z,82.91
2019-01-10T09:08:58.058Z,80.83
2019-01-10T09:09:58.020Z,81.21
2019-01-10T09:10:57.985Z,82.72
2019-01-10T09:11:57.950Z,82.15
2019-01-10T09:12:57.914Z,88.40
2019-01-10T09:13:57.893Z,86.04
2019-01-10T09:14:57.842Z,85.75
2019-01-10T09:15:57.807Z,84.14
2019-01-10T09:16:57.771Z,84.61
2019-01-10T09:17:57.735Z,87.46
2019-01-10T09:18:57.699Z,86.89
2019-01-10T09:19:57.663Z,90.96
2019-01-10T09:21:04.225Z,88.49
2019-01-10T09:21:57.593Z,89.77
2019-01-10T09:22:57.556Z,88.82
2019-01-10T09:23:57.521Z,92.61
2019-01-10T09:24:57.488Z,89.58
2019-01-10T09:25:57.454Z,95.45
2019-01-10T09:26:57.416Z,95.45
2019-01-10T09:27:57.380Z,95.55
2019-01-10T09:28:57.344Z,96.31
2019-01-10T09:29:57.310Z,98.11
2019-01-10T09:30:57.273Z,97.73
2019-01-10T09:31:57.238Z,96.88
2019-01-10T09:32:57.203Z,99.99
2019-01-10T09:33:57.167Z,99.15
2019-01-10T09:34:57.132Z,96.50
2019-01-10T09:35:57.097Z,99.99
2019-01-10T09:36:57.064Z,97.63
2019-01-10T09:37:57.028Z,99.52
2019-01-10T09:38:56.991Z,99.99
2019-01-10T09:39:56.959Z,98.77
2019-01-10T09:40:56.922Z,99.99
2019-01-10T09:41:56.886Z,99.99
2019-01-10T09:42:56.850Z,99.99
2019-01-10T09:43:56.814Z,99.99
2019-01-10T09:44:56.780Z,99.99
2019-01-10T09:45:56.744Z,99.99
2019-01-10T09:46:56.715Z,99.99
2019-01-10T09:47:56.675Z,99.99
2019-01-10T09:48:56.641Z,99.99
2019-01-10T09:49:56.604Z,99.99
2019-01-10T09:50:56.569Z,98.68
2019-01-10T09:51:56.534Z,97.54
2019-01-10T09:52:56.500Z,98.68
2019-01-10T09:53:56.463Z,99.99
2019-01-10T09:54:56.430Z,99.99
2019-01-10T09:55:56.394Z,99.99
2019-01-10T09:56:56.358Z,99.99
2019-01-10T09:57:56.322Z,98.96
2019-01-10T09:58:56.290Z,99.90
2019-01-10T09:59:56.256Z,99.99
2019-01-10T10:00:56.219Z,98.58
2019-01-10T10:01:56.183Z,98.86
2019-01-10T10:02:56.148Z,99.99
2019-01-10T10:03:56.113Z,99.99
2019-01-10T10:04:56.078Z,99.99
2019-01-10T10:05:56.042Z,99.99
2019-01-10T10:06:56.008Z,99.99
2019-01-10T10:07:55.973Z,99.99
2019-01-10T10:08:55.938Z,99.99
2019-01-10T10:09:55.903Z,99.99
2019-01-10T10:10:55.866Z,99.99
2019-01-10T10:11:55.833Z,99.99
2019-01-10T10:12:55.797Z,99.99
2019-01-10T10:13:55.761Z,99.99
2019-01-10T10:14:55.727Z,99.99
2019-01-10T10:15:55.691Z,99.99
2019-01-10T10:16:55.656Z,99.99
2019-01-10T10:17:55.620Z,99.99
2019-01-10T10:18:55.588Z,99.99
2019-01-10T10:19:55.551Z,99.99
2019-01-10T10:20:55.521Z,99.99
2019-01-10T10:21:55.485Z,99.99
2019-01-10T10:22:55.445Z,99.99
2019-01-10T10:23:55.410Z,99.99
2019-01-10T10:24:55.375Z,99.99
2019-01-10T10:25:55.340Z,99.99
2019-01-10T10:26:55.308Z,99.99
2019-01-10T10:27:55.269Z,99.99
2019-01-10T10:28:55.238Z,99.99
2019-01-10T10:29:55.201Z,99.99
2019-01-10T10:30:55.307Z,99.99
2019-01-10T10:31:55.132Z,99.99
2019-01-10T10:32:55.094Z,99.99
2019-01-10T10:33:55.075Z,99.99
2019-01-10T10:34:55.022Z,99.99
2019-01-10T10:35:55.057Z,99.99
2019-01-10T10:36:54.953Z,99.99
2019-01-10T10:37:54.921Z,99.99
2019-01-10T10:38:54.883Z,99.99
2019-01-10T10:39:54.847Z,99.99
2019-01-10T10:40:54.812Z,99.99
2019-01-10T10:41:54.776Z,99.99
2019-01-10T10:42:54.741Z,99.99
2019-01-10T10:43:54.709Z,99.99
2019-01-10T10:44:54.673Z,99.99
2019-01-10T10:46:01.469Z,99.99
2019-01-10T10:46:54.601Z,99.99
2019-01-10T10:47:54.567Z,99.99
2019-01-10T10:48:54.533Z,99.99
2019-01-10T10:49:54.496Z,99.99
2019-01-10T10:50:54.461Z,99.99
2019-01-10T10:51:54.427Z,99.99
2019-01-10T10:52:54.393Z,99.99
2019-01-10T10:53:54.356Z,99.99
2019-01-10T10:54:54.320Z,99.99
2019-01-10T10:55:54.286Z,99.99
2019-01-10T10:56:54.251Z,99.99
2019-01-10T10:57:54.231Z,99.99
2019-01-10T10:58:54.179Z,99.99
2019-01-10T10:59:54.145Z,99.99
2019-01-10T11:00:54.114Z,99.99
2019-01-10T11:01:54.074Z,99.99
2019-01-10T11:02:54.039Z,99.99
2019-01-10T11:03:54.003Z,99.99
2019-01-10T11:04:53.970Z,99.99
2019-01-10T11:05:53.935Z,99.99
2019-01-10T11:06:53.899Z,99.99
2019-01-10T11:07:53.865Z,99.99
2019-01-10T11:08:53.829Z,99.99
2019-01-10T11:09:53.798Z,99.99
2019-01-10T11:10:53.757Z,99.99
2019-01-10T11:11:53.724Z,99.99
2019-01-10T11:12:53.691Z,99.99
2019-01-10T11:13:53.653Z,99.99
2019-01-10T11:14:53.617Z,99.99
2019-01-10T11:15:53.588Z,99.99
2019-01-10T11:16:53.546Z,99.99
2019-01-10T11:17:53.512Z,99.99
2019-01-10T11:18:53.477Z,99.99
2019-01-10T11:19:53.441Z,99.99
2019-01-10T11:20:53.408Z,99.99
2019-01-10T11:21:53.372Z,99.99
2019-01-10T11:22:53.337Z,99.99
2019-01-10T11:23:53.301Z,99.99
2019-01-10T11:24:53.267Z,99.99
2019-01-10T11:25:53.231Z,99.99
2019-01-10T11:26:53.500Z,99.99
2019-01-10T11:27:53.162Z,99.99
2019-01-10T11:28:53.128Z,99.99
2019-01-10T11:29:53.090Z,99.99
2019-01-10T11:30:53.055Z,99.99
2019-01-10T11:31:53.021Z,99.99
2019-01-10T11:32:53.889Z,99.99
2019-01-10T11:33:52.949Z,99.99
2019-01-10T11:34:52.916Z,99.99
2019-01-10T11:35:52.880Z,99.99
2019-01-10T11:36:52.845Z,99.99
2019-01-10T11:37:52.896Z,99.99
2019-01-10T11:38:52.776Z,99.99
2019-01-10T11:39:52.739Z,99.99
2019-01-10T11:40:52.707Z,99.99
2019-01-10T11:41:52.673Z,99.99
2019-01-10T11:42:52.635Z,99.99
2019-01-10T11:43:52.601Z,99.99
2019-01-10T11:44:52.567Z,99.99
2019-01-10T11:45:52.530Z,99.99
2019-01-10T11:46:52.494Z,99.99
2019-01-10T11:47:52.467Z,99.99
2019-01-10T11:48:52.425Z,99.99
2019-01-10T11:49:52.389Z,99.99
2019-01-10T11:50:52.355Z,99.99
2019-01-10T11:51:52.320Z,99.99
2019-01-10T11:52:52.286Z,99.99
2019-01-10T11:53:52.250Z,99.99
2019-01-10T11:54:52.215Z,99.99
2019-01-10T11:55:52.181Z,99.99
2019-01-10T11:56:52.147Z,99.99
2019-01-10T11:57:52.111Z,99.99
2019-01-10T11:58:52.075Z,99.99
2019-01-10T11:59:52.043Z,99.99
2019-01-10T12:00:52.008Z,99.99
2019-01-10T12:01:51.970Z,99.99
2019-01-10T12:02:51.939Z,99.99
2019-01-10T12:03:51.902Z,99.99
2019-01-10T12:04:51.865Z,99.99
2019-01-10T12:05:53.137Z,99.99
2019-01-10T12:06:51.795Z,99.99
2019-01-10T12:07:51.760Z,99.99
2019-01-10T12:08:51.727Z,99.99
2019-01-10T12:09:51.690Z,99.99
2019-01-10T12:10:51.656Z,99.99
2019-01-10T12:11:51.622Z,99.99
2019-01-10T12:12:51.587Z,99.99
2019-01-10T12:13:51.552Z,99.99
2019-01-10T12:14:51.516Z,99.99
2019-01-10T12:15:51.480Z,99.99
2019-01-10T12:16:51.446Z,99.99
2019-01-10T12:17:51.410Z,99.99
2019-01-10T12:18:59.199Z,99.99
2019-01-10T12:19:51.344Z,99.99
2019-01-10T12:20:51.305Z,99.99
2019-01-10T12:21:51.269Z,99.99
2019-01-10T12:22:51.236Z,99.99
2019-01-10T12:23:51.203Z,99.99
2019-01-10T12:24:51.166Z,99.99
2019-01-10T12:25:51.128Z,99.99
2019-01-10T12:26:51.097Z,99.99
2019-01-10T12:27:51.059Z,99.99
2019-01-10T12:28:51.024Z,99.99
2019-01-10T12:29:50.988Z,99.99
2019-01-10T12:30:50.955Z,99.99
2019-01-10T12:31:50.919Z,99.99
2019-01-10T12:32:50.882Z,99.99
2019-01-10T12:33:50.848Z,99.99
2019-01-10T12:34:50.814Z,99.99
2019-01-10T12:35:50.778Z,99.99
2019-01-10T12:36:50.743Z,99.99
2019-01-10T12:37:50.708Z,99.99
2019-01-10T12:38:50.672Z,99.99
2019-01-10T12:39:50.637Z,99.99
2019-01-10T12:40:50.603Z,99.99
2019-01-10T12:41:50.567Z,99.99
2019-01-10T12:42:50.531Z,99.99
2019-01-10T12:43:50.497Z,99.99
2019-01-10T12:44:50.461Z,99.99
2019-01-10T12:45:50.428Z,99.99
2019-01-10T12:46:50.390Z,99.99
2019-01-10T12:47:50.357Z,99.99
2019-01-10T12:48:50.320Z,99.99
2019-01-10T12:49:50.283Z,99.99
2019-01-10T12:50:50.250Z,99.99
2019-01-10T12:51:50.223Z,99.99